createdAt,value
2022-08-18T00:00:46.873Z,100891.34
2022-08-18T00:02:28.774Z,100899.50
2022-08-18T00:04:03.742Z,100896.06
2022-08-18T00:05:48.456Z,100900.81
2022-08-18T00:07:22.889Z,100905.19
2022-08-18T00:08:54.589Z,100900.81
2022-08-18T00:10:27.059Z,100904.34
2022-08-18T00:11:58.746Z,100909.69
2022-08-18T00:13:30.444Z,100914.34
2022-08-18T00:15:04.648Z,100913.75
2022-08-18T00:16:36.364Z,100912.28
2022-08-18T00:18:08.018Z,100916.16
2022-08-18T00:19:45.981Z,100912.91
2022-08-18T00:21:20.525Z,100914.00
2022-08-18T00:22:53.224Z,100912.41
2022-08-18T00:24:25.289Z,100915.34
2022-08-18T00:25:59.447Z,100926.28
2022-08-18T00:27:31.486Z,100921.19
2022-08-18T00:29:03.793Z,100919.50
2022-08-18T00:30:41.301Z,100921.19
2022-08-18T00:32:14.394Z,100915.84
2022-08-18T00:33:46.110Z,100911.31
2022-08-18T00:35:20.907Z,100913.88
2022-08-18T00:36:54.412Z,100923.59
2022-08-18T00:38:26.103Z,100923.47
2022-08-18T00:39:57.798Z,100916.19
2022-08-18T00:41:30.015Z,100919.59
2022-08-18T00:43:07.317Z,100912.41
2022-08-18T00:44:39.093Z,100905.94
2022-08-18T00:46:15.624Z,100920.59
2022-08-18T00:47:47.627Z,100913.03
2022-08-18T00:49:19.289Z,100907.25
2022-08-18T00:50:54.280Z,100915.84
2022-08-18T00:52:27.408Z,100918.91
2022-08-18T00:54:03.106Z,100918.50
2022-08-18T00:55:35.760Z,100918.97
2022-08-18T00:57:08.951Z,100910.69
2022-08-18T00:58:44.324Z,100906.03
2022-08-18T01:00:16.184Z,100911.69
2022-08-18T01:01:50.231Z,100906.50
2022-08-18T01:03:25.058Z,100907.06
2022-08-18T01:05:02.748Z,100900.75
2022-08-18T01:06:47.524Z,100907.06
2022-08-18T01:08:28.573Z,100907.53
2022-08-18T01:10:01.173Z,100915.97
2022-08-18T01:11:33.937Z,100919.94
2022-08-18T01:13:06.313Z,100912.50
2022-08-18T01:14:38.484Z,100907.38
2022-08-18T01:16:57.069Z,100911.38
2022-08-18T01:18:47.914Z,100904.75
2022-08-18T01:20:52.967Z,100910.88
2022-08-18T01:22:29.348Z,100909.50
2022-08-18T01:24:04.727Z,100906.72
2022-08-18T01:25:56.198Z,100902.13
2022-08-18T01:27:31.930Z,100909.16
2022-08-18T01:29:05.194Z,100907.47
2022-08-18T01:30:48.451Z,100896.78
2022-08-18T01:32:22.948Z,100898.72
2022-08-18T01:33:54.738Z,100903.09
2022-08-18T01:35:27.392Z,100912.00
2022-08-18T01:36:59.340Z,100912.94
2022-08-18T01:38:33.924Z,100915.44
2022-08-18T01:41:24.379Z,100919.91
2022-08-18T01:42:04.506Z,100918.38
2022-08-18T01:43:36.504Z,100920.50
2022-08-18T01:45:09.503Z,100927.94
2022-08-18T01:46:41.802Z,100928.09
2022-08-18T01:48:13.807Z,100926.78
2022-08-18T01:49:45.498Z,100926.34
2022-08-18T01:51:19.700Z,100925.88
2022-08-18T01:52:53.379Z,100930.88
2022-08-18T01:54:30.127Z,100936.84
2022-08-18T01:56:05.453Z,100947.16
2022-08-18T01:57:44.957Z,100939.97
2022-08-18T01:59:17.267Z,100944.44
2022-08-18T02:00:48.921Z,100941.22
2022-08-18T02:02:26.157Z,100946.06
2022-08-18T02:04:23.420Z,100944.38
2022-08-18T02:05:51.812Z,100951.28
2022-08-18T02:07:24.132Z,100946.53
2022-08-18T02:09:06.346Z,100952.53
2022-08-18T02:10:40.088Z,100944.84
2022-08-18T02:12:13.968Z,100942.28
2022-08-18T02:13:45.705Z,100944.00
2022-08-18T02:15:17.618Z,100946.16
2022-08-18T02:16:49.623Z,100950.00
2022-08-18T02:18:47.202Z,100948.31
2022-08-18T02:20:19.115Z,100945.78
2022-08-18T02:21:52.018Z,100938.78
2022-08-18T02:23:24.242Z,100934.53
2022-08-18T02:24:57.141Z,100934.16
2022-08-18T02:26:28.786Z,100934.16
2022-08-18T02:28:01.864Z,100934.91
2022-08-18T02:29:34.576Z,100917.06
2022-08-18T02:31:08.389Z,100912.69
2022-08-18T02:32:43.386Z,100907.88
2022-08-18T02:34:15.134Z,100900.44
2022-08-18T02:35:53.546Z,100897.44
2022-08-18T02:37:25.394Z,100899.34
2022-08-18T02:38:59.780Z,100899.91
2022-08-18T02:40:33.818Z,100899.38
2022-08-18T02:42:06.207Z,100902.28
2022-08-18T02:43:41.744Z,100904.28
2022-08-18T02:45:14.012Z,100904.16
2022-08-18T02:46:45.723Z,100897.03
2022-08-18T02:48:21.771Z,100904.69
2022-08-18T02:49:53.464Z,100907.81
2022-08-18T02:51:26.022Z,100909.72
2022-08-18T02:52:57.896Z,100903.53
2022-08-18T02:54:29.577Z,100907.06
2022-08-18T02:56:40.458Z,100906.72
2022-08-18T02:58:13.441Z,100908.78
2022-08-18T02:59:47.470Z,100904.59
2022-08-18T03:01:21.538Z,100904.59
2022-08-18T03:02:54.495Z,100901.72
2022-08-18T03:04:30.444Z,100904.81
2022-08-18T03:06:02.393Z,100904.41
2022-08-18T03:07:34.247Z,100908.88
2022-08-18T03:09:07.879Z,100905.97
2022-08-18T03:10:39.554Z,100898.31
2022-08-18T03:12:11.253Z,100899.47
2022-08-18T03:13:43.387Z,100900.03
2022-08-18T03:15:16.572Z,100898.94
2022-08-18T03:16:53.479Z,100901.09
2022-08-18T03:18:26.772Z,100903.66
2022-08-18T03:19:58.472Z,100903.84
2022-08-18T03:21:36.410Z,100905.78
2022-08-18T03:23:09.756Z,100901.41
2022-08-18T03:24:41.900Z,100904.25
2022-08-18T03:26:16.100Z,100910.06
2022-08-18T03:27:47.861Z,100907.06
2022-08-18T03:29:19.768Z,100906.31
2022-08-18T03:30:52.776Z,100909.94
2022-08-18T03:32:24.472Z,100912.78
2022-08-18T03:33:59.638Z,100917.25
2022-08-18T03:35:31.476Z,100909.94
2022-08-18T03:37:03.164Z,100909.88
2022-08-18T03:38:35.076Z,100907.28
2022-08-18T03:40:07.805Z,100906.56
2022-08-18T03:41:44.016Z,100905.19
2022-08-18T03:43:50.938Z,100913.03
2022-08-18T03:45:24.349Z,100909.50
2022-08-18T03:46:58.102Z,100912.28
2022-08-18T03:48:29.918Z,100918.13
2022-08-18T03:50:01.671Z,100919.59
2022-08-18T03:51:34.049Z,100914.06
2022-08-18T03:53:05.737Z,100921.88
2022-08-18T03:54:39.123Z,100913.97
2022-08-18T03:56:15.817Z,100920.09
2022-08-18T03:57:52.709Z,100913.09
2022-08-18T03:59:27.007Z,100907.91
2022-08-18T04:00:58.809Z,100907.28
2022-08-18T04:02:31.873Z,100905.34
2022-08-18T04:04:05.846Z,100908.88
2022-08-18T04:05:39.617Z,100910.69
2022-08-18T04:07:17.417Z,100911.06
2022-08-18T04:08:51.204Z,100912.38
2022-08-18T04:10:23.050Z,100901.47
2022-08-18T04:11:55.601Z,100913.63
2022-08-18T04:13:27.250Z,100901.59
2022-08-18T04:14:58.921Z,100896.66
2022-08-18T04:16:32.370Z,100902.13
2022-08-18T04:18:08.604Z,100899.09
2022-08-18T04:19:40.828Z,100904.22
2022-08-18T04:21:13.706Z,100913.72
2022-08-18T04:22:46.556Z,100919.81
2022-08-18T04:24:18.541Z,100910.16
2022-08-18T04:25:56.141Z,100916.63
2022-08-18T04:27:28.801Z,100920.84
2022-08-18T04:29:03.685Z,100914.13
2022-08-18T04:30:36.501Z,100913.63
2022-08-18T04:32:08.339Z,100905.94
2022-08-18T04:33:42.020Z,100905.31
2022-08-18T04:35:14.306Z,100909.47
2022-08-18T04:36:46.708Z,100903.41
2022-08-18T04:38:18.695Z,100915.81
2022-08-18T04:39:50.442Z,100906.69
2022-08-18T04:41:26.241Z,100905.34
2022-08-18T04:42:58.098Z,100900.53
2022-08-18T04:44:29.803Z,100904.06
2022-08-18T04:46:02.151Z,100909.31
2022-08-18T04:47:36.023Z,100904.03
2022-08-18T04:49:10.780Z,100913.03
2022-08-18T04:50:43.334Z,100923.00
2022-08-18T04:52:40.900Z,100922.13
2022-08-18T04:54:13.219Z,100914.72
2022-08-18T04:55:48.279Z,100915.69
2022-08-18T04:57:21.590Z,100922.03
2022-08-18T04:58:55.278Z,100919.97
2022-08-18T05:00:27.000Z,100934.69
2022-08-18T05:02:05.658Z,100926.63
2022-08-18T05:03:38.379Z,100935.50
2022-08-18T05:05:23.553Z,100929.50
2022-08-18T05:06:55.223Z,100930.75
2022-08-18T05:08:27.091Z,100940.94
2022-08-18T05:09:58.890Z,100940.78
2022-08-18T05:11:33.520Z,100934.41
2022-08-18T05:13:06.584Z,100936.41
2022-08-18T05:14:38.374Z,100940.72
2022-08-18T05:16:16.826Z,100936.31
2022-08-18T05:17:51.397Z,100934.91
2022-08-18T05:19:26.058Z,100931.97
2022-08-18T05:21:01.209Z,100930.13
2022-08-18T05:22:37.661Z,100942.56
2022-08-18T05:24:10.360Z,100934.13
2022-08-18T05:25:42.155Z,100942.59
2022-08-18T05:27:14.400Z,100948.22
2022-08-18T05:28:47.147Z,100944.97
2022-08-18T05:30:18.914Z,100944.44
2022-08-18T05:31:52.556Z,100952.78
2022-08-18T05:33:24.712Z,100954.56
2022-08-18T05:34:56.567Z,100944.47
2022-08-18T05:37:01.258Z,100947.00
2022-08-18T05:38:47.955Z,100943.84
2022-08-18T05:40:24.314Z,100956.97
2022-08-18T05:42:03.013Z,100952.00
2022-08-18T05:43:36.769Z,100960.88
2022-08-18T05:45:23.977Z,100950.53
2022-08-18T05:47:00.265Z,100948.19
2022-08-18T05:48:32.369Z,100962.00
2022-08-18T05:50:07.033Z,100954.22
2022-08-18T05:51:42.156Z,100952.06
2022-08-18T05:53:16.863Z,100959.19
2022-08-18T05:55:14.182Z,100962.34
2022-08-18T05:56:49.893Z,100965.19
2022-08-18T05:58:33.323Z,100970.47
2022-08-18T06:00:09.193Z,100968.84
2022-08-18T06:01:52.021Z,100963.28
2022-08-18T06:03:29.879Z,100966.38
2022-08-18T06:05:27.513Z,100966.09
2022-08-18T06:07:05.555Z,100977.03
2022-08-18T06:08:42.564Z,100974.63
2022-08-18T06:10:15.095Z,100978.75
2022-08-18T06:11:47.214Z,100984.44
2022-08-18T06:13:20.558Z,100978.50
2022-08-18T06:14:55.972Z,100988.47
2022-08-18T06:16:44.510Z,100981.84
2022-08-18T06:18:37.554Z,100985.25
2022-08-18T06:20:18.451Z,100984.84
2022-08-18T06:22:02.608Z,100986.13
2022-08-18T06:23:43.370Z,100986.81
2022-08-18T06:25:22.988Z,100987.41
2022-08-18T06:26:59.365Z,100991.94
2022-08-18T06:28:43.564Z,100991.06
2022-08-18T06:30:19.711Z,101001.34
2022-08-18T06:32:02.949Z,100994.88
2022-08-18T06:33:50.214Z,100992.84
2022-08-18T06:35:34.161Z,100994.34
2022-08-18T06:37:12.859Z,100999.31
2022-08-18T06:38:55.770Z,100997.28
2022-08-18T06:40:27.724Z,100998.91
2022-08-18T06:41:59.789Z,100995.66
2022-08-18T06:43:34.218Z,100997.00
2022-08-18T06:45:13.065Z,101000.97
2022-08-18T06:46:49.463Z,101003.84
2022-08-18T06:48:31.679Z,101003.59
2022-08-18T06:50:09.705Z,101006.09
2022-08-18T06:51:41.540Z,101006.50
2022-08-18T06:53:27.597Z,101006.13
2022-08-18T06:55:04.521Z,101011.03
2022-08-18T06:56:47.932Z,101005.19
2022-08-18T06:58:27.135Z,101014.69
2022-08-18T07:00:02.238Z,101005.59
2022-08-18T07:01:34.079Z,101007.78
2022-08-18T07:03:11.859Z,101009.28
2022-08-18T07:04:59.705Z,101007.59
2022-08-18T07:06:31.613Z,101019.16
2022-08-18T07:08:15.297Z,101002.81
2022-08-18T07:09:50.254Z,101007.31
2022-08-18T07:11:26.321Z,101010.63
2022-08-18T07:13:15.825Z,101006.03
2022-08-18T07:14:51.124Z,101012.72
2022-08-18T07:16:54.912Z,101011.00
2022-08-18T07:18:25.085Z,101010.97
2022-08-18T07:20:00.664Z,101008.16
2022-08-18T07:21:34.377Z,101016.53
2022-08-18T07:23:07.966Z,101019.19
2022-08-18T07:24:42.758Z,101020.66
2022-08-18T07:26:19.118Z,101021.25
2022-08-18T07:27:56.058Z,101011.66
2022-08-18T07:29:28.913Z,101015.06
2022-08-18T07:31:25.210Z,101013.84
2022-08-18T07:33:04.921Z,101007.88
2022-08-18T07:34:38.478Z,101010.41
2022-08-18T07:36:11.551Z,101007.50
2022-08-18T07:37:51.638Z,101010.75
2022-08-18T07:39:27.904Z,101007.84
2022-08-18T07:41:05.109Z,100998.84
2022-08-18T07:42:53.998Z,101003.97
2022-08-18T07:44:45.910Z,100994.13
2022-08-18T07:46:27.042Z,101001.28
2022-08-18T07:48:27.297Z,100999.59
2022-08-18T07:50:23.075Z,100988.91
2022-08-18T07:51:57.444Z,100994.03
2022-08-18T07:53:42.553Z,100987.94
2022-08-18T07:55:29.065Z,100987.22
2022-08-18T07:57:08.869Z,100986.47
2022-08-18T07:58:48.251Z,100980.03
2022-08-18T08:00:41.450Z,100991.38
2022-08-18T08:02:29.339Z,100990.38
2022-08-18T08:04:25.023Z,100999.66
2022-08-18T08:06:08.574Z,101009.69
2022-08-18T08:07:48.883Z,101011.59
2022-08-18T08:09:26.142Z,101006.75
2022-08-18T08:11:09.993Z,101005.03
2022-08-18T08:12:45.962Z,101001.38
2022-08-18T08:14:36.965Z,101000.63
2022-08-18T08:16:20.079Z,101004.13
2022-08-18T08:17:59.111Z,101015.44
2022-08-18T08:20:02.212Z,101019.53
2022-08-18T08:21:40.416Z,101024.44
2022-08-18T08:23:24.029Z,101026.16
2022-08-18T08:25:03.360Z,101021.69
2022-08-18T08:26:51.847Z,101017.19
2022-08-18T08:28:37.021Z,101018.91
2022-08-18T08:30:12.480Z,101024.53
2022-08-18T08:31:50.189Z,101021.47
2022-08-18T08:33:26.848Z,101026.31
2022-08-18T08:35:05.688Z,101032.38
2022-08-18T08:36:40.417Z,101038.09
2022-08-18T08:38:40.031Z,101039.13
2022-08-18T08:40:15.792Z,101052.38
2022-08-18T08:41:51.732Z,101046.56
2022-08-18T08:43:29.852Z,101040.78
2022-08-18T08:45:06.586Z,101046.59
2022-08-18T08:46:46.675Z,101045.66
2022-08-18T08:48:25.083Z,101042.53
2022-08-18T08:50:02.026Z,101041.06
2022-08-18T08:51:39.484Z,101048.84
2022-08-18T08:53:21.366Z,101039.66
2022-08-18T08:55:00.084Z,101040.97
2022-08-18T08:56:36.694Z,101048.16
2022-08-18T08:58:20.970Z,101036.88
2022-08-18T08:59:58.442Z,101037.53
2022-08-18T09:01:37.804Z,101037.25
2022-08-18T09:03:30.643Z,101041.56
2022-08-18T09:05:09.944Z,101037.84
2022-08-18T09:06:52.236Z,101030.78
2022-08-18T09:08:42.772Z,101041.00
2022-08-18T09:10:39.526Z,101035.41
2022-08-18T09:12:34.560Z,101036.16
2022-08-18T09:14:45.963Z,101029.72
2022-08-18T09:16:27.854Z,101020.63
2022-08-18T09:18:16.026Z,101017.34
2022-08-18T09:20:01.107Z,101020.34
2022-08-18T09:21:40.956Z,101028.03
2022-08-18T09:23:19.878Z,101024.56
2022-08-18T09:24:54.341Z,101023.84
2022-08-18T09:26:40.957Z,101014.97
2022-08-18T09:28:15.910Z,101020.72
2022-08-18T09:29:51.761Z,101013.28
2022-08-18T09:31:25.201Z,101020.38
2022-08-18T09:33:19.092Z,101013.22
2022-08-18T09:35:05.435Z,101012.81
2022-08-18T09:36:59.178Z,101013.75
2022-08-18T09:38:50.439Z,101016.50
2022-08-18T09:41:02.278Z,101012.31
2022-08-18T09:42:49.790Z,101016.84
2022-08-18T09:45:04.927Z,101022.81
2022-08-18T09:46:56.021Z,101024.44
2022-08-18T09:48:36.241Z,101022.53
2022-08-18T09:50:52.281Z,101020.16
2022-08-18T09:52:49.207Z,101016.38
2022-08-18T09:54:25.213Z,101017.66
2022-08-18T09:56:04.785Z,101019.22
2022-08-18T09:57:42.348Z,101019.78
2022-08-18T09:59:52.977Z,101020.06
2022-08-18T10:03:43.455Z,101017.81
2022-08-18T10:05:34.381Z,101027.09
2022-08-18T10:09:37.411Z,101033.75
2022-08-18T10:11:28.590Z,101037.84
2022-08-18T10:13:15.403Z,101036.56
2022-08-18T10:15:08.915Z,101034.72
2022-08-18T10:17:21.578Z,101023.13
2022-08-18T10:18:54.057Z,101022.97
2022-08-18T10:20:38.646Z,101027.06
2022-08-18T10:22:13.787Z,101019.75
2022-08-18T10:24:03.144Z,101020.72
2022-08-18T10:25:47.835Z,101023.91
2022-08-18T10:27:49.072Z,101020.03
2022-08-18T10:29:44.660Z,101029.47
2022-08-18T10:31:16.420Z,101020.28
2022-08-18T10:32:54.034Z,101018.59
2022-08-18T10:34:40.693Z,101029.16
2022-08-18T10:36:46.152Z,101026.34
2022-08-18T10:38:36.893Z,101020.63
2022-08-18T10:40:16.483Z,101016.44
2022-08-18T10:42:06.569Z,101022.91
2022-08-18T10:43:57.402Z,101016.34
2022-08-18T10:45:32.422Z,101012.94
2022-08-18T10:47:12.074Z,101014.59
2022-08-18T10:48:44.353Z,101004.91
2022-08-18T10:50:23.095Z,101007.25
2022-08-18T10:52:12.534Z,101008.09
2022-08-18T10:53:47.865Z,101000.25
2022-08-18T10:55:47.695Z,100999.06
2022-08-18T10:57:30.758Z,100998.19
2022-08-18T10:59:17.198Z,100996.56
2022-08-18T11:01:05.813Z,100998.69
2022-08-18T11:03:02.014Z,100995.03
2022-08-18T11:04:41.093Z,100990.63
2022-08-18T11:06:23.449Z,100994.31
2022-08-18T11:08:01.313Z,100999.28
2022-08-18T11:09:33.640Z,100989.03
2022-08-18T11:11:37.274Z,100986.56
2022-08-18T11:13:08.961Z,100981.22
2022-08-18T11:15:22.149Z,100979.63
2022-08-18T11:17:06.894Z,100975.72
2022-08-18T11:18:43.808Z,100972.91
2022-08-18T11:20:22.537Z,100980.00
2022-08-18T11:21:57.474Z,100971.59
2022-08-18T11:23:30.348Z,100975.44
2022-08-18T11:25:18.680Z,100975.00
2022-08-18T11:26:54.971Z,100975.81
2022-08-18T11:28:30.651Z,100976.09
2022-08-18T11:30:06.342Z,100977.41
2022-08-18T11:31:38.391Z,100980.31
2022-08-18T11:33:15.573Z,100970.94
2022-08-18T11:35:02.749Z,100966.88
2022-08-18T11:36:39.425Z,100967.94
2022-08-18T11:38:23.925Z,100966.00
2022-08-18T11:40:06.065Z,100969.31
2022-08-18T11:41:49.448Z,100969.63
2022-08-18T11:43:29.650Z,100961.94
2022-08-18T11:45:08.522Z,100965.00
2022-08-18T11:46:40.784Z,100952.72
2022-08-18T11:50:25.957Z,100956.25
2022-08-18T11:52:02.524Z,100961.81
2022-08-18T11:53:43.158Z,100959.13
2022-08-18T11:55:24.001Z,100963.16
2022-08-18T11:59:54.797Z,100962.38
2022-08-18T12:01:42.232Z,100959.69
2022-08-18T12:03:23.818Z,100955.22
2022-08-18T12:05:03.350Z,100956.31
2022-08-18T12:06:52.037Z,100958.06
2022-08-18T12:08:58.161Z,100958.41
2022-08-18T12:10:28.978Z,100952.47
2022-08-18T12:12:05.070Z,100957.16
2022-08-18T12:13:36.801Z,100948.41
2022-08-18T12:15:29.562Z,100945.53
2022-08-18T12:17:16.508Z,100952.47
2022-08-18T12:18:50.845Z,100947.81
2022-08-18T12:20:25.596Z,100953.47
2022-08-18T12:21:59.374Z,100960.06
2022-08-18T12:23:44.497Z,100961.16
2022-08-18T12:25:25.148Z,100967.72
2022-08-18T12:27:01.009Z,100968.59
2022-08-18T12:28:32.769Z,100982.66
2022-08-18T12:30:06.328Z,100987.44
2022-08-18T12:31:47.459Z,100981.59
2022-08-18T12:33:25.273Z,100982.31
2022-08-18T12:35:09.430Z,100987.38
2022-08-18T12:36:41.716Z,100987.75
2022-08-18T12:38:17.796Z,101004.03
2022-08-18T12:39:50.502Z,101013.19
2022-08-18T12:41:23.852Z,101018.91
2022-08-18T12:42:57.178Z,101028.25
2022-08-18T12:44:29.677Z,101022.69
2022-08-18T12:46:02.439Z,101020.59
2022-08-18T12:47:40.042Z,101026.78
2022-08-18T12:49:16.917Z,101020.56
2022-08-18T12:50:54.028Z,101012.78
2022-08-18T12:52:27.419Z,101010.88
2022-08-18T12:54:00.170Z,101020.38
2022-08-18T12:55:36.183Z,101005.66
2022-08-18T12:59:14.262Z,101002.28
2022-08-18T13:00:48.073Z,101000.13
2022-08-18T13:02:23.310Z,100991.78
2022-08-18T13:04:13.184Z,100990.00
2022-08-18T13:05:46.955Z,100982.09
2022-08-18T13:07:19.481Z,100981.16
2022-08-18T13:08:57.053Z,100970.03
2022-08-18T13:10:43.032Z,100958.88
2022-08-18T13:12:19.478Z,100956.03
2022-08-18T13:13:55.952Z,100959.88
2022-08-18T13:15:30.093Z,100960.56
2022-08-18T13:17:02.257Z,100962.09
2022-08-18T13:18:34.210Z,100958.22
2022-08-18T13:20:10.669Z,100953.16
2022-08-18T13:21:45.252Z,100953.53
2022-08-18T13:23:20.140Z,100948.50
2022-08-18T13:24:56.462Z,100947.50
2022-08-18T13:26:31.089Z,100947.81
2022-08-18T13:28:03.313Z,100945.59
2022-08-18T13:29:35.086Z,100947.41
2022-08-18T13:31:09.732Z,100944.41
2022-08-18T13:32:58.417Z,100936.84
2022-08-18T13:34:33.589Z,100945.06
2022-08-18T13:36:05.778Z,100943.19
2022-08-18T13:37:37.647Z,100936.19
2022-08-18T13:39:11.830Z,100937.94
2022-08-18T13:40:47.090Z,100932.28
2022-08-18T13:42:26.750Z,100923.56
2022-08-18T13:44:01.227Z,100934.47
2022-08-18T13:45:35.209Z,100912.78
2022-08-18T13:47:10.517Z,100911.31
2022-08-18T13:48:43.170Z,100904.25
2022-08-18T13:50:16.535Z,100905.56
2022-08-18T13:51:58.049Z,100901.13
2022-08-18T13:53:32.370Z,100903.66
2022-08-18T13:55:08.374Z,100886.31
2022-08-18T13:56:40.382Z,100886.84
2022-08-18T13:58:20.253Z,100892.41
2022-08-18T13:59:52.859Z,100894.81
2022-08-18T14:01:45.014Z,100894.13
2022-08-18T14:03:20.465Z,100897.16
2022-08-18T14:05:09.758Z,100902.56
2022-08-18T14:06:51.181Z,100913.06
2022-08-18T14:08:29.151Z,100910.53
2022-08-18T14:10:04.914Z,100917.28
2022-08-18T14:11:37.905Z,100912.56
2022-08-18T14:13:20.949Z,100919.16
2022-08-18T14:14:57.128Z,100920.00
2022-08-18T14:16:29.073Z,100920.69
2022-08-18T14:18:02.592Z,100917.94
2022-08-18T14:19:57.550Z,100913.84
2022-08-18T14:21:47.770Z,100917.38
2022-08-18T14:23:39.415Z,100921.88
2022-08-18T14:25:42.148Z,100921.53
2022-08-18T14:27:14.252Z,100915.97
2022-08-18T14:28:47.583Z,100915.44
2022-08-18T14:30:20.117Z,100916.63
2022-08-18T14:31:53.125Z,100917.81
2022-08-18T14:33:34.023Z,100904.81
2022-08-18T14:36:03.775Z,100910.88
2022-08-18T14:37:14.318Z,100905.44
2022-08-18T14:38:46.993Z,100906.28
2022-08-18T14:40:23.747Z,100902.34
2022-08-18T14:41:58.470Z,100899.13
2022-08-18T14:44:04.032Z,100902.56
2022-08-18T14:45:28.060Z,100912.00
2022-08-18T14:47:03.610Z,100911.97
2022-08-18T14:48:36.997Z,100909.88
2022-08-18T14:50:12.878Z,100910.72
2022-08-18T14:51:49.339Z,100909.81
2022-08-18T14:53:23.418Z,100901.34
2022-08-18T14:54:55.405Z,100903.88
2022-08-18T14:56:28.530Z,100904.00
2022-08-18T14:58:01.404Z,100907.06
2022-08-18T14:59:34.650Z,100910.59
2022-08-18T15:01:11.773Z,100908.13
2022-08-18T15:02:44.653Z,100908.59
2022-08-18T15:04:19.442Z,100901.63
2022-08-18T15:05:51.529Z,100892.16
2022-08-18T15:07:25.852Z,100886.44
2022-08-18T15:08:57.634Z,100895.25
2022-08-18T15:10:30.172Z,100887.66
2022-08-18T15:12:03.673Z,100889.66
2022-08-18T15:13:38.363Z,100886.72
2022-08-18T15:15:12.960Z,100887.69
2022-08-18T15:16:49.468Z,100886.31
2022-08-18T15:18:22.879Z,100886.78
2022-08-18T15:19:59.945Z,100887.97
2022-08-18T15:21:51.591Z,100881.56
2022-08-18T15:23:45.081Z,100891.97
2022-08-18T15:25:50.926Z,100893.78
2022-08-18T15:27:42.963Z,100880.56
2022-08-18T15:29:15.026Z,100892.66
2022-08-18T15:30:50.997Z,100884.94
2022-08-18T15:32:24.331Z,100885.19
2022-08-18T15:33:57.544Z,100886.47
2022-08-18T15:35:29.585Z,100892.88
2022-08-18T15:37:09.801Z,100888.00
2022-08-18T15:38:43.026Z,100890.53
2022-08-18T15:40:30.136Z,100894.63
2022-08-18T15:42:10.422Z,100891.28
2022-08-18T15:43:46.259Z,100894.94
2022-08-18T15:45:21.694Z,100895.59
2022-08-18T15:46:58.466Z,100891.53
2022-08-18T15:48:30.866Z,100900.97
2022-08-18T15:50:06.705Z,100903.41
2022-08-18T15:51:53.737Z,100895.97
2022-08-18T15:53:29.965Z,100897.06
2022-08-18T15:55:03.950Z,100896.97
2022-08-18T15:56:43.265Z,100900.56
2022-08-18T15:58:15.191Z,100895.78
2022-08-18T15:59:55.881Z,100890.88
2022-08-18T16:01:32.022Z,100888.19
2022-08-18T16:03:08.845Z,100896.84
2022-08-18T16:04:41.393Z,100899.53
2022-08-18T16:06:20.456Z,100896.66
2022-08-18T16:07:53.956Z,100899.03
2022-08-18T16:09:25.830Z,100897.16
2022-08-18T16:10:58.998Z,100892.94
2022-08-18T16:12:30.753Z,100891.09
2022-08-18T16:14:02.553Z,100878.59
2022-08-18T16:15:37.051Z,100881.28
2022-08-18T16:17:18.280Z,100876.88
2022-08-18T16:18:55.754Z,100874.31
2022-08-18T16:20:29.475Z,100879.72
2022-08-18T16:22:06.192Z,100872.59
2022-08-18T16:23:38.872Z,100872.81
2022-08-18T16:25:11.407Z,100872.63
2022-08-18T16:26:44.490Z,100869.91
2022-08-18T16:28:16.223Z,100860.97
2022-08-18T16:29:49.173Z,100862.16
2022-08-18T16:31:26.208Z,100861.66
2022-08-18T16:33:03.553Z,100854.22
2022-08-18T16:34:35.320Z,100851.16
2022-08-18T16:36:09.305Z,100852.84
2022-08-18T16:37:41.195Z,100860.47
2022-08-18T16:39:12.927Z,100864.03
2022-08-18T16:40:45.434Z,100863.84
2022-08-18T16:42:18.604Z,100863.16
2022-08-18T16:43:50.361Z,100862.31
2022-08-18T16:45:22.686Z,100876.53
2022-08-18T16:46:54.441Z,100874.19
2022-08-18T16:49:59.098Z,100865.56
2022-08-18T16:51:31.452Z,100864.50
2022-08-18T16:53:03.508Z,100853.34
2022-08-18T16:54:35.324Z,100859.63
2022-08-18T16:56:11.521Z,100858.78
2022-08-18T16:58:03.409Z,100865.38
2022-08-18T16:59:53.923Z,100852.00
2022-08-18T17:01:49.101Z,100847.44
2022-08-18T17:03:39.806Z,100850.16
2022-08-18T17:05:12.197Z,100849.97
2022-08-18T17:06:47.415Z,100849.97
2022-08-18T17:08:19.759Z,100846.59
2022-08-18T17:09:52.679Z,100846.59
2022-08-18T17:11:27.178Z,100842.38
2022-08-18T17:13:00.302Z,100853.13
2022-08-18T17:14:38.649Z,100850.16
2022-08-18T17:16:10.703Z,100856.28
2022-08-18T17:17:42.375Z,100845.47
2022-08-18T17:19:14.379Z,100854.13
2022-08-18T17:20:46.473Z,100848.59
2022-08-18T17:22:18.382Z,100850.09
2022-08-18T17:23:51.590Z,100849.59
2022-08-18T17:25:26.663Z,100847.25
2022-08-18T17:27:26.265Z,100847.25
2022-08-18T17:29:05.744Z,100854.75
2022-08-18T17:30:45.485Z,100847.94
2022-08-18T17:32:20.266Z,100855.13
2022-08-18T17:33:57.246Z,100845.63
2022-08-18T17:35:34.865Z,100843.19
2022-08-18T17:37:10.434Z,100839.44
2022-08-18T17:38:47.818Z,100842.66
2022-08-18T17:40:28.665Z,100839.97
2022-08-18T17:42:19.317Z,100837.94
2022-08-18T17:43:54.636Z,100841.59
2022-08-18T17:45:35.006Z,100832.13
2022-08-18T17:47:09.451Z,100842.19
2022-08-18T17:48:47.322Z,100842.50
2022-08-18T17:50:44.554Z,100839.63
2022-08-18T17:52:16.452Z,100841.47
2022-08-18T17:53:50.795Z,100842.34
2022-08-18T17:55:26.867Z,100848.56
2022-08-18T17:57:05.479Z,100848.50
2022-08-18T17:58:40.725Z,100844.16
2022-08-18T18:00:16.391Z,100846.22
2022-08-18T18:02:08.399Z,100843.47
2022-08-18T18:03:54.066Z,100850.88
2022-08-18T18:05:35.247Z,100845.28
2022-08-18T18:07:19.972Z,100849.31
2022-08-18T18:08:55.778Z,100846.47
2022-08-18T18:10:51.041Z,100848.78
2022-08-18T18:12:26.384Z,100849.28
2022-08-18T18:13:59.719Z,100847.13
2022-08-18T18:15:33.438Z,100847.94
2022-08-18T18:17:14.448Z,100844.84
2022-08-18T18:18:46.610Z,100834.53
2022-08-18T18:20:38.022Z,100841.47
2022-08-18T18:22:17.190Z,100850.19
2022-08-18T18:23:51.575Z,100841.09
2022-08-18T18:25:34.575Z,100835.31
2022-08-18T18:27:30.790Z,100834.97
2022-08-18T18:29:21.996Z,100835.41
2022-08-18T18:30:57.947Z,100835.81
2022-08-18T18:32:36.287Z,100832.72
2022-08-18T18:34:23.061Z,100832.41
2022-08-18T18:36:00.615Z,100828.19
2022-08-18T18:37:33.080Z,100839.13
2022-08-18T18:39:09.857Z,100838.44
2022-08-18T18:40:55.603Z,100840.16
2022-08-18T18:42:29.688Z,100836.47
2022-08-18T18:44:06.852Z,100839.66
2022-08-18T18:45:38.813Z,100832.78
2022-08-18T18:47:24.612Z,100844.06
2022-08-18T18:49:10.096Z,100847.47
2022-08-18T18:50:55.680Z,100842.50
2022-08-18T18:52:37.530Z,100850.00
2022-08-18T18:54:22.760Z,100852.31
2022-08-18T18:56:05.010Z,100857.16
2022-08-18T18:57:48.497Z,100853.91